createdAt,value
2023-04-07T00:02:44.702Z,23.83
2023-04-07T00:05:46.882Z,22.65
2023-04-07T00:08:48.919Z,20.00
2023-04-07T00:11:51.892Z,20.00
2023-04-07T00:14:53.949Z,22.70
2023-04-07T00:17:56.488Z,21.00
2023-04-07T00:20:58.594Z,21.87
2023-04-07T00:24:00.627Z,21.73
2023-04-07T00:27:02.657Z,22.40
2023-04-07T00:30:05.018Z,24.52
2023-04-07T00:33:09.650Z,21.35
2023-04-07T00:36:12.028Z,22.17
2023-04-07T00:39:14.890Z,21.13
2023-04-07T00:42:16.918Z,22.10
2023-04-07T00:45:19.140Z,21.30
2023-04-07T00:48:21.805Z,22.42
2023-04-07T00:51:23.852Z,21.57
2023-04-07T00:54:26.247Z,18.20
2023-04-07T00:57:28.323Z,22.92
2023-04-07T01:00:31.790Z,20.55
2023-04-07T01:03:36.779Z,19.58
2023-04-07T01:06:42.938Z,22.30
2023-04-07T01:09:47.781Z,20.73
2023-04-07T01:12:54.672Z,20.67
2023-04-07T01:16:01.011Z,19.17
2023-04-07T01:19:24.450Z,21.98
2023-04-07T01:22:43.275Z,18.17
2023-04-07T01:26:05.212Z,19.25
2023-04-07T01:29:07.179Z,19.13
2023-04-07T01:32:12.041Z,20.98
2023-04-07T01:35:14.755Z,22.42
2023-04-07T01:38:17.545Z,20.63
2023-04-07T01:41:19.707Z,21.30
2023-04-07T01:44:22.692Z,22.73
2023-04-07T01:47:27.898Z,18.35
2023-04-07T01:50:30.019Z,20.88
2023-04-07T01:53:32.367Z,20.60
2023-04-07T01:56:34.390Z,20.42
2023-04-07T01:59:39.696Z,20.63
2023-04-07T02:02:44.557Z,23.15
2023-04-07T02:05:48.544Z,26.15
2023-04-07T02:08:54.509Z,23.83
2023-04-07T02:11:58.485Z,21.02
2023-04-07T02:15:01.636Z,21.77
2023-04-07T02:18:04.918Z,20.65
2023-04-07T02:21:08.840Z,24.33
2023-04-07T02:24:11.750Z,23.37
2023-04-07T02:27:14.227Z,22.90
2023-04-07T02:30:16.277Z,21.50
2023-04-07T02:33:19.766Z,25.75
2023-04-07T02:36:21.765Z,25.75
2023-04-07T02:39:23.789Z,26.85
2023-04-07T02:42:26.054Z,25.58
2023-04-07T02:45:28.097Z,24.77
2023-04-07T02:48:30.469Z,25.15
2023-04-07T02:51:32.525Z,23.35
2023-04-07T02:54:34.541Z,25.23
2023-04-07T02:57:36.687Z,23.73
2023-04-07T03:00:42.504Z,23.52
2023-04-07T03:03:52.274Z,24.77
2023-04-07T03:06:58.623Z,21.52
2023-04-07T03:10:02.729Z,27.63
2023-04-07T03:13:08.380Z,24.30
2023-04-07T03:16:11.591Z,22.40
2023-04-07T03:19:26.419Z,25.50
2023-04-07T03:22:28.543Z,25.65
2023-04-07T03:25:30.824Z,26.00
2023-04-07T03:28:33.093Z,23.80
2023-04-07T03:31:37.479Z,23.33
2023-04-07T03:34:39.599Z,22.48
2023-04-07T03:37:41.860Z,24.30
2023-04-07T03:40:48.970Z,25.27
2023-04-07T03:43:51.706Z,25.98
2023-04-07T03:46:55.058Z,24.60
2023-04-07T03:49:58.870Z,29.05
2023-04-07T03:53:02.645Z,24.65
2023-04-07T03:56:06.425Z,27.97
2023-04-07T03:59:19.465Z,27.20
2023-04-07T04:02:29.699Z,25.15
2023-04-07T04:05:32.982Z,29.42
2023-04-07T04:08:35.704Z,26.23
2023-04-07T04:11:37.886Z,30.10
2023-04-07T04:14:40.787Z,29.88
2023-04-07T04:17:44.578Z,26.63
2023-04-07T04:20:48.103Z,27.17
2023-04-07T04:23:50.439Z,29.27
2023-04-07T04:26:52.715Z,28.07
2023-04-07T04:29:54.729Z,27.17
2023-04-07T04:33:06.451Z,31.20
2023-04-07T04:36:31.338Z,27.98
2023-04-07T04:39:38.642Z,32.00
2023-04-07T04:42:41.568Z,26.85
2023-04-07T04:45:45.871Z,26.88
2023-04-07T04:48:51.794Z,23.90
2023-04-07T04:51:55.665Z,27.52
2023-04-07T04:54:58.533Z,27.38
2023-04-07T04:58:02.601Z,28.47
2023-04-07T05:01:16.054Z,28.67
2023-04-07T05:04:26.484Z,28.42
2023-04-07T05:07:36.138Z,30.63
2023-04-07T05:10:40.404Z,28.48
2023-04-07T05:13:47.576Z,29.30
2023-04-07T05:16:49.729Z,25.45
2023-04-07T05:19:56.079Z,23.60
2023-04-07T05:23:12.630Z,27.08
2023-04-07T05:26:15.843Z,26.35
2023-04-07T05:29:18.685Z,27.00
2023-04-07T05:32:21.257Z,26.73
2023-04-07T05:35:24.145Z,30.20
2023-04-07T05:38:30.585Z,29.30
2023-04-07T05:41:36.555Z,28.10
2023-04-07T05:44:39.135Z,29.13
2023-04-07T05:47:41.346Z,26.88
2023-04-07T05:50:45.188Z,26.73
2023-04-07T05:53:51.212Z,28.70
2023-04-07T05:56:56.528Z,27.85
2023-04-07T05:59:59.222Z,27.30
2023-04-07T06:03:02.096Z,30.42
2023-04-07T06:06:07.626Z,28.35
2023-04-07T06:09:10.574Z,32.85
2023-04-07T06:12:12.764Z,32.67
2023-04-07T06:15:14.797Z,28.40
2023-04-07T06:18:16.846Z,30.67
2023-04-07T06:21:18.900Z,32.70
2023-04-07T06:24:22.804Z,33.08
2023-04-07T06:27:24.760Z,30.52
2023-04-07T06:30:26.885Z,30.13
2023-04-07T06:33:28.985Z,31.95
2023-04-07T06:36:33.246Z,29.77
2023-04-07T06:39:35.453Z,30.17
2023-04-07T06:42:37.426Z,27.52
2023-04-07T06:45:46.388Z,29.42
2023-04-07T06:48:48.399Z,29.13
2023-04-07T06:51:50.672Z,27.97
2023-04-07T06:54:52.730Z,31.58
2023-04-07T06:57:54.738Z,28.02
2023-04-07T07:00:56.744Z,30.33
2023-04-07T07:03:58.913Z,30.27
2023-04-07T07:07:01.062Z,31.52
2023-04-07T07:10:03.286Z,30.98
2023-04-07T07:13:05.360Z,28.23
2023-04-07T07:16:07.453Z,27.65
2023-04-07T07:19:09.817Z,27.75
2023-04-07T07:22:11.876Z,24.67
2023-04-07T07:25:14.084Z,25.48
2023-04-07T07:28:16.751Z,22.67
2023-04-07T07:31:18.935Z,22.20
2023-04-07T07:34:21.030Z,18.92
2023-04-07T07:37:23.188Z,17.63
2023-04-07T07:40:25.605Z,20.90
2023-04-07T07:43:27.762Z,21.60
2023-04-07T07:46:29.934Z,19.73
2023-04-07T07:49:32.046Z,16.85
2023-04-07T07:52:34.068Z,15.90
2023-04-07T07:55:36.180Z,18.30
2023-04-07T07:58:38.184Z,17.02
2023-04-07T08:01:40.382Z,17.10
2023-04-07T08:04:42.493Z,17.92
2023-04-07T08:07:44.530Z,16.45
2023-04-07T08:10:46.702Z,16.90
2023-04-07T08:13:48.874Z,18.75
2023-04-07T08:16:51.483Z,16.52
2023-04-07T08:19:53.485Z,13.20
2023-04-07T08:22:55.761Z,15.10
2023-04-07T08:25:57.921Z,17.92
2023-04-07T08:28:59.936Z,17.38
2023-04-07T08:32:02.170Z,18.07
2023-04-07T08:35:04.522Z,17.10
2023-04-07T08:38:07.898Z,18.60
2023-04-07T08:41:13.709Z,17.70
2023-04-07T08:44:15.961Z,19.00
2023-04-07T08:47:18.607Z,20.05
2023-04-07T08:50:21.378Z,19.70
2023-04-07T08:53:24.356Z,17.10
2023-04-07T08:56:26.641Z,19.67
2023-04-07T08:59:29.851Z,15.70
2023-04-07T09:02:35.734Z,17.07
2023-04-07T09:05:38.639Z,17.92
2023-04-07T09:08:40.808Z,16.42
2023-04-07T09:11:42.846Z,16.48
2023-04-07T09:14:44.924Z,18.20
2023-04-07T09:17:47.105Z,18.10
2023-04-07T09:20:56.824Z,16.20
2023-04-07T09:23:58.817Z,17.50
2023-04-07T09:27:11.476Z,17.83
2023-04-07T09:30:15.725Z,16.38
2023-04-07T09:33:26.715Z,18.07
2023-04-07T09:36:29.483Z,16.42
2023-04-07T09:39:31.825Z,16.65
2023-04-07T09:42:36.145Z,19.98
2023-04-07T09:45:39.478Z,17.58
2023-04-07T09:48:42.646Z,17.67
2023-04-07T09:51:54.505Z,18.63
2023-04-07T09:54:56.884Z,13.47
2023-04-07T09:57:59.563Z,15.43
2023-04-07T10:01:02.470Z,16.33
2023-04-07T10:04:05.086Z,16.70
2023-04-07T10:07:07.485Z,16.35
2023-04-07T10:10:10.131Z,15.88
2023-04-07T10:13:12.823Z,16.90
2023-04-07T10:16:14.907Z,18.33
2023-04-07T10:19:17.117Z,17.05
2023-04-07T10:22:19.341Z,21.92
2023-04-07T10:25:22.670Z,17.60
2023-04-07T10:28:25.839Z,16.88
2023-04-07T10:31:28.056Z,16.77
2023-04-07T10:34:51.366Z,16.80
2023-04-07T10:38:05.500Z,17.80
2023-04-07T10:41:26.282Z,17.10
2023-04-07T10:44:43.376Z,15.23
2023-04-07T10:48:03.365Z,16.98
2023-04-07T10:51:05.361Z,16.65
2023-04-07T10:54:24.040Z,16.20
2023-04-07T10:57:26.058Z,13.73
2023-04-07T11:00:28.157Z,16.27
2023-04-07T11:03:43.367Z,14.57
2023-04-07T11:06:48.500Z,17.90
2023-04-07T11:09:50.592Z,15.77
2023-04-07T11:12:59.745Z,16.30
2023-04-07T11:16:01.751Z,16.48
2023-04-07T11:19:03.799Z,16.00
2023-04-07T11:22:28.697Z,15.30
2023-04-07T11:25:33.356Z,16.05
2023-04-07T11:28:36.703Z,15.20
2023-04-07T11:31:38.819Z,16.73
2023-04-07T11:34:41.033Z,14.95
2023-04-07T11:37:43.103Z,16.40
2023-04-07T11:40:46.893Z,15.10
2023-04-07T11:43:49.752Z,15.13
2023-04-07T11:46:55.859Z,15.05
2023-04-07T11:49:57.918Z,18.15
2023-04-07T11:52:59.970Z,15.02
2023-04-07T11:56:02.846Z,14.18
2023-04-07T11:59:05.070Z,13.30
2023-04-07T12:02:08.428Z,13.68
2023-04-07T12:05:10.966Z,15.75
2023-04-07T12:08:14.332Z,14.50
2023-04-07T12:11:16.376Z,13.75
2023-04-07T12:14:18.331Z,12.73
2023-04-07T12:17:24.504Z,13.38
2023-04-07T12:20:27.400Z,13.18
2023-04-07T12:23:29.462Z,14.73
2023-04-07T12:26:31.454Z,16.67
2023-04-07T12:29:33.928Z,16.50
2023-04-07T12:32:36.180Z,17.33
2023-04-07T12:35:39.262Z,17.73
2023-04-07T12:38:41.280Z,18.53
2023-04-07T12:41:44.917Z,17.80
2023-04-07T12:44:46.907Z,14.98
2023-04-07T12:47:48.953Z,14.43
2023-04-07T12:50:50.943Z,14.75
2023-04-07T12:53:54.337Z,14.65
2023-04-07T12:56:57.287Z,19.13
2023-04-07T12:59:59.327Z,16.77
2023-04-07T13:03:01.632Z,14.35
2023-04-07T13:06:04.640Z,15.68
2023-04-07T13:09:06.706Z,14.47
2023-04-07T13:12:11.079Z,15.40
2023-04-07T13:15:13.175Z,15.82
2023-04-07T13:18:15.474Z,15.70
2023-04-07T13:24:22.586Z,15.98
2023-04-07T13:27:24.618Z,19.48
2023-04-07T13:30:27.506Z,17.80
2023-04-07T13:33:29.604Z,19.88
2023-04-07T13:36:31.712Z,19.55
2023-04-07T13:39:33.714Z,21.23
2023-04-07T13:42:35.984Z,19.85
2023-04-07T13:45:38.287Z,20.48
2023-04-07T13:48:40.273Z,20.17
2023-04-07T13:51:42.326Z,19.30
2023-04-07T13:54:45.291Z,19.17
2023-04-07T13:57:47.319Z,18.70
2023-04-07T14:00:49.347Z,18.20
2023-04-07T14:03:51.597Z,18.38
2023-04-07T14:06:53.977Z,19.33
2023-04-07T14:09:56.268Z,20.23
2023-04-07T14:12:58.307Z,23.30
2023-04-07T14:16:00.422Z,17.10
2023-04-07T14:19:02.455Z,18.23
2023-04-07T14:22:04.449Z,18.17
2023-04-07T14:25:06.693Z,19.10
2023-04-07T14:28:09.612Z,20.65
2023-04-07T14:31:15.988Z,15.67
2023-04-07T14:34:18.165Z,18.50
2023-04-07T14:37:24.143Z,17.05
2023-04-07T14:40:26.381Z,18.40
2023-04-07T14:43:28.516Z,16.00
2023-04-07T14:46:30.727Z,18.48
2023-04-07T14:49:32.740Z,18.02
2023-04-07T14:52:34.823Z,19.52
2023-04-07T14:55:37.158Z,19.95
2023-04-07T14:58:40.601Z,19.85
2023-04-07T15:01:42.744Z,18.30
2023-04-07T15:04:45.468Z,19.52
2023-04-07T15:07:49.975Z,18.63
2023-04-07T15:10:51.963Z,18.43
2023-04-07T15:13:54.337Z,16.30
2023-04-07T15:16:56.384Z,17.92
2023-04-07T15:19:58.408Z,19.08
2023-04-07T15:23:03.762Z,18.05
2023-04-07T15:26:06.224Z,18.27
2023-04-07T15:29:08.237Z,18.27
2023-04-07T15:32:10.466Z,18.13
2023-04-07T15:35:12.511Z,17.52
2023-04-07T15:38:14.622Z,16.80
2023-04-07T15:41:16.991Z,18.00
2023-04-07T15:44:19.230Z,20.15
2023-04-07T15:47:21.274Z,16.90
2023-04-07T15:50:23.795Z,20.13
2023-04-07T15:53:25.886Z,19.85
2023-04-07T15:56:27.912Z,20.45
2023-04-07T15:59:31.157Z,17.85
2023-04-07T16:02:33.502Z,17.17
2023-04-07T16:05:35.868Z,19.17
2023-04-07T16:08:37.910Z,18.90
2023-04-07T16:11:39.940Z,19.50
2023-04-07T16:14:42.039Z,19.08
2023-04-07T16:17:46.239Z,19.08
2023-04-07T16:20:48.306Z,19.92
2023-04-07T16:23:50.548Z,20.35
2023-04-07T16:26:52.770Z,21.20
2023-04-07T16:29:54.843Z,22.50
2023-04-07T16:32:56.895Z,22.90
2023-04-07T16:35:58.949Z,17.45
2023-04-07T16:39:01.064Z,20.80
2023-04-07T16:42:03.504Z,19.80
2023-04-07T16:45:06.244Z,21.65
2023-04-07T16:48:08.266Z,20.90
2023-04-07T16:51:10.309Z,19.35
2023-04-07T16:54:12.307Z,20.13
2023-04-07T16:57:14.416Z,19.98
2023-04-07T17:00:16.593Z,20.95
2023-04-07T17:03:18.701Z,17.37
2023-04-07T17:06:20.792Z,19.10
2023-04-07T17:09:22.803Z,18.52
2023-04-07T17:12:24.818Z,22.67
2023-04-07T17:15:26.859Z,20.55
2023-04-07T17:18:28.900Z,22.92
2023-04-07T17:21:32.103Z,25.00
2023-04-07T17:24:34.108Z,24.67
2023-04-07T17:27:36.199Z,25.38
2023-04-07T17:30:38.391Z,22.73
2023-04-07T17:33:40.403Z,22.77
2023-04-07T17:36:42.510Z,31.27
2023-04-07T17:39:44.584Z,34.05
2023-04-07T17:42:46.567Z,31.87
2023-04-07T17:45:48.644Z,24.73
2023-04-07T17:48:51.737Z,21.00
2023-04-07T17:51:54.252Z,22.38
2023-04-07T17:54:56.614Z,25.52
2023-04-07T17:58:01.215Z,26.08
2023-04-07T18:01:03.353Z,24.77
2023-04-07T18:04:06.699Z,20.60
2023-04-07T18:07:09.449Z,23.15
2023-04-07T18:10:11.650Z,22.30
2023-04-07T18:13:13.650Z,25.03
2023-04-07T18:16:21.441Z,27.92
2023-04-07T18:19:24.389Z,34.13
2023-04-07T18:22:27.033Z,24.25
2023-04-07T18:25:29.122Z,20.77
2023-04-07T18:28:31.482Z,19.80
2023-04-07T18:31:33.580Z,21.65
2023-04-07T18:34:35.643Z,20.10
2023-04-07T18:37:37.704Z,19.90
2023-04-07T18:40:40.099Z,20.48
2023-04-07T18:43:42.322Z,20.53
2023-04-07T18:46:46.140Z,20.15
2023-04-07T18:49:48.614Z,21.23
2023-04-07T18:52:50.703Z,27.15
2023-04-07T18:55:52.704Z,27.30
2023-04-07T18:58:54.797Z,23.33
2023-04-07T19:01:57.214Z,18.60
2023-04-07T19:04:59.431Z,28.90
2023-04-07T19:08:01.487Z,22.85
2023-04-07T19:11:03.825Z,21.02
2023-04-07T19:14:06.165Z,23.00
2023-04-07T19:17:08.211Z,23.25
2023-04-07T19:20:10.607Z,19.10
2023-04-07T19:23:12.629Z,20.73
2023-04-07T19:26:14.958Z,21.83
2023-04-07T19:29:17.500Z,22.77
2023-04-07T19:32:19.484Z,22.20
2023-04-07T19:35:21.680Z,20.13
2023-04-07T19:38:23.659Z,22.17
2023-04-07T19:41:26.062Z,21.85
2023-04-07T19:44:28.023Z,20.83
2023-04-07T19:47:30.048Z,18.55
2023-04-07T19:50:32.153Z,21.52
2023-04-07T19:53:34.276Z,32.20
2023-04-07T19:56:37.696Z,26.58
2023-04-07T19:59:39.797Z,24.88
2023-04-07T20:02:42.055Z,21.25
2023-04-07T20:05:44.655Z,20.93
2023-04-07T20:08:48.409Z,22.63
2023-04-07T20:11:50.602Z,20.80
2023-04-07T20:14:52.622Z,21.00
2023-04-07T20:17:54.697Z,32.17
2023-04-07T20:21:00.327Z,31.77
2023-04-07T20:24:03.567Z,21.67
2023-04-07T20:27:05.889Z,21.42
2023-04-07T20:30:09.120Z,28.08
2023-04-07T20:33:11.132Z,19.70
2023-04-07T20:36:13.413Z,20.53
2023-04-07T20:39:15.960Z,21.58
2023-04-07T20:42:18.007Z,21.63
2023-04-07T20:45:21.672Z,20.67
2023-04-07T20:48:24.195Z,22.25
2023-04-07T20:51:26.173Z,23.70
2023-04-07T20:54:30.191Z,25.98
2023-04-07T20:57:32.155Z,23.27
2023-04-07T21:00:34.235Z,23.98
2023-04-07T21:03:36.632Z,22.20
2023-04-07T21:06:38.821Z,18.83
2023-04-07T21:09:41.418Z,19.65
2023-04-07T21:12:43.451Z,19.48
2023-04-07T21:15:45.532Z,23.63
2023-04-07T21:18:47.868Z,20.83
2023-04-07T21:21:50.081Z,20.17
2023-04-07T21:24:56.792Z,21.98
2023-04-07T21:27:59.332Z,28.70
2023-04-07T21:31:01.582Z,23.42
2023-04-07T21:34:03.744Z,22.10
2023-04-07T21:37:05.885Z,21.17
2023-04-07T21:40:08.413Z,24.83
2023-04-07T21:43:10.422Z,27.92
2023-04-07T21:46:14.317Z,22.00
2023-04-07T21:49:18.166Z,22.08
2023-04-07T21:52:20.446Z,30.73
2023-04-07T21:55:22.567Z,20.15
2023-04-07T21:58:25.305Z,21.80
2023-04-07T22:01:28.324Z,18.08
2023-04-07T22:04:30.527Z,18.27
2023-04-07T22:07:32.595Z,18.33
2023-04-07T22:10:34.660Z,17.45
2023-04-07T22:13:36.733Z,18.23
2023-04-07T22:16:38.882Z,17.43
2023-04-07T22:19:40.897Z,17.85
2023-04-07T22:22:44.030Z,17.48
2023-04-07T22:25:46.175Z,18.42
2023-04-07T22:28:48.564Z,17.27
2023-04-07T22:31:50.839Z,17.50
2023-04-07T22:34:52.872Z,18.88
2023-04-07T22:37:55.022Z,16.53
2023-04-07T22:40:57.006Z,16.85
2023-04-07T22:43:59.245Z,16.98
2023-04-07T22:47:01.387Z,16.30
2023-04-07T22:50:03.663Z,16.33
2023-04-07T22:53:07.384Z,17.13
2023-04-07T22:56:09.414Z,16.85
2023-04-07T22:59:11.480Z,17.40
2023-04-07T23:02:13.556Z,16.92
2023-04-07T23:05:16.028Z,18.08
2023-04-07T23:08:18.236Z,16.63
2023-04-07T23:11:22.459Z,16.92
2023-04-07T23:14:24.602Z,16.48
2023-04-07T23:17:26.990Z,15.83
2023-04-07T23:20:28.979Z,16.52
2023-04-07T23:23:31.078Z,17.95
2023-04-07T23:26:33.094Z,17.40
2023-04-07T23:29:35.127Z,17.10
2023-04-07T23:32:37.529Z,18.85
2023-04-07T23:35:39.679Z,16.55
2023-04-07T23:38:42.114Z,15.43
2023-04-07T23:41:44.148Z,17.10
2023-04-07T23:44:46.450Z,15.93
2023-04-07T23:47:48.566Z,17.07
2023-04-07T23:50:51.372Z,15.40
2023-04-07T23:53:53.328Z,17.17
2023-04-07T23:56:55.374Z,16.55
2023-04-07T23:59:57.379Z,16.98
